sensor_id;sensor_type;location;lat;lon;timestamp;pressure;altitude;pressure_sealevel;temperature;humidity
41040;BME280;48586;50.122;18.972;2022-07-11T00:02:38;98765.09;;;14.10;64.67
41040;BME280;48586;50.122;18.972;2022-07-11T00:05:41;98765.41;;;14.02;64.94
41040;BME280;48586;50.122;18.972;2022-07-11T00:08:43;98764.47;;;13.97;66.18
41040;BME280;48586;50.122;18.972;2022-07-11T00:11:45;98766.75;;;13.93;65.47
41040;BME280;48586;50.122;18.972;2022-07-11T00:14:47;98766.75;;;13.93;65.65
41040;BME280;48586;50.122;18.972;2022-07-11T00:17:49;98768.75;;;13.98;65.38
41040;BME280;48586;50.122;18.972;2022-07-11T00:20:52;98768.31;;;14.01;65.80
41040;BME280;48586;50.122;18.972;2022-07-11T00:23:54;98768.06;;;14.02;65.44
41040;BME280;48586;50.122;18.972;2022-07-11T00:26:56;98769.00;;;14.08;65.59
41040;BME280;48586;50.122;18.972;2022-07-11T00:29:58;98760.44;;;14.06;65.47
41040;BME280;48586;50.122;18.972;2022-07-11T00:33:00;98766.81;;;14.05;66.21
41040;BME280;48586;50.122;18.972;2022-07-11T00:36:03;98756.97;;;14.05;66.50
41040;BME280;48586;50.122;18.972;2022-07-11T00:39:05;98759.84;;;14.04;65.83
41040;BME280;48586;50.122;18.972;2022-07-11T00:42:07;98767.81;;;14.04;65.95
41040;BME280;48586;50.122;18.972;2022-07-11T00:45:09;98757.41;;;14.02;66.54
41040;BME280;48586;50.122;18.972;2022-07-11T00:48:11;98762.50;;;14.04;66.42
41040;BME280;48586;50.122;18.972;2022-07-11T00:51:15;98763.53;;;14.03;66.37
41040;BME280;48586;50.122;18.972;2022-07-11T00:54:20;98773.03;;;13.99;66.72
41040;BME280;48586;50.122;18.972;2022-07-11T00:57:24;98776.28;;;14.01;66.35
41040;BME280;48586;50.122;18.972;2022-07-11T01:00:26;98774.66;;;14.00;66.53
41040;BME280;48586;50.122;18.972;2022-07-11T01:03:29;98773.16;;;14.04;66.85
41040;BME280;48586;50.122;18.972;2022-07-11T01:06:32;98767.50;;;14.00;67.13
41040;BME280;48586;50.122;18.972;2022-07-11T01:09:34;98766.66;;;14.00;66.84
41040;BME280;48586;50.122;18.972;2022-07-11T01:12:36;98770.50;;;14.04;67.02
41040;BME280;48586;50.122;18.972;2022-07-11T01:15:39;98763.66;;;14.08;67.05
41040;BME280;48586;50.122;18.972;2022-07-11T01:18:42;98777.81;;;14.08;67.19
41040;BME280;48586;50.122;18.972;2022-07-11T01:21:49;98765.31;;;14.09;67.88
41040;BME280;48586;50.122;18.972;2022-07-11T01:24:53;98767.75;;;14.10;67.47
41040;BME280;48586;50.122;18.972;2022-07-11T01:27:56;98765.09;;;14.10;66.35
41040;BME280;48586;50.122;18.972;2022-07-11T01:30:58;98771.78;;;14.13;66.66
41040;BME280;48586;50.122;18.972;2022-07-11T01:34:00;98773.31;;;14.09;66.68
41040;BME280;48586;50.122;18.972;2022-07-11T01:37:02;98779.53;;;14.03;67.06
41040;BME280;48586;50.122;18.972;2022-07-11T01:40:07;98775.47;;;14.00;67.01
41040;BME280;48586;50.122;18.972;2022-07-11T01:43:10;98777.78;;;13.97;66.97
41040;BME280;48586;50.122;18.972;2022-07-11T01:46:12;98777.31;;;14.00;66.75
41040;BME280;48586;50.122;18.972;2022-07-11T01:49:14;98776.88;;;14.03;66.89
41040;BME280;48586;50.122;18.972;2022-07-11T01:52:16;98774.66;;;14.00;66.95
41040;BME280;48586;50.122;18.972;2022-07-11T01:55:19;98763.88;;;13.94;67.63
41040;BME280;48586;50.122;18.972;2022-07-11T01:58:21;98756.41;;;13.85;68.16
41040;BME280;48586;50.122;18.972;2022-07-11T02:01:23;98756.16;;;13.75;69.33
41040;BME280;48586;50.122;18.972;2022-07-11T02:04:25;98740.31;;;13.61;69.02
41040;BME280;48586;50.122;18.972;2022-07-11T02:07:27;98743.63;;;13.57;69.21
41040;BME280;48586;50.122;18.972;2022-07-11T02:10:46;98735.81;;;13.62;69.14
41040;BME280;48586;50.122;18.972;2022-07-11T02:13:48;98741.06;;;13.68;69.02
41040;BME280;48586;50.122;18.972;2022-07-11T02:16:50;98744.09;;;13.72;69.27
41040;BME280;48586;50.122;18.972;2022-07-11T02:19:52;98736.69;;;13.74;69.39
41040;BME280;48586;50.122;18.972;2022-07-11T02:22:55;98738.44;;;13.80;69.46
41040;BME280;48586;50.122;18.972;2022-07-11T02:26:00;98744.03;;;13.79;69.97
41040;BME280;48586;50.122;18.972;2022-07-11T02:29:03;98742.47;;;13.71;69.92
41040;BME280;48586;50.122;18.972;2022-07-11T02:32:06;98742.78;;;13.63;70.42
41040;BME280;48586;50.122;18.972;2022-07-11T02:35:08;98743.44;;;13.58;71.77
41040;BME280;48586;50.122;18.972;2022-07-11T02:38:10;98753.72;;;13.55;70.71
41040;BME280;48586;50.122;18.972;2022-07-11T02:41:13;98749.50;;;13.47;71.13
41040;BME280;48586;50.122;18.972;2022-07-11T02:44:16;98757.97;;;13.44;71.31
41040;BME280;48586;50.122;18.972;2022-07-11T02:47:18;98757.72;;;13.45;70.96
41040;BME280;48586;50.122;18.972;2022-07-11T02:50:19;98759.09;;;13.48;71.02
41040;BME280;48586;50.122;18.972;2022-07-11T02:53:21;98760.75;;;13.49;70.89
41040;BME280;48586;50.122;18.972;2022-07-11T02:56:24;98759.47;;;13.52;70.89
41040;BME280;48586;50.122;18.972;2022-07-11T02:59:28;98763.19;;;13.51;71.26
41040;BME280;48586;50.122;18.972;2022-07-11T03:02:30;98765.28;;;13.49;71.46
41040;BME280;48586;50.122;18.972;2022-07-11T03:05:32;98773.47;;;13.47;71.28
41040;BME280;48586;50.122;18.972;2022-07-11T03:08:34;98772.66;;;13.46;71.30
41040;BME280;48586;50.122;18.972;2022-07-11T03:11:38;98775.09;;;13.48;71.43
41040;BME280;48586;50.122;18.972;2022-07-11T03:14:39;98774.88;;;13.50;71.34
41040;BME280;48586;50.122;18.972;2022-07-11T03:17:41;98775.31;;;13.46;71.91
41040;BME280;48586;50.122;18.972;2022-07-11T03:20:43;98771.03;;;13.45;71.88
41040;BME280;48586;50.122;18.972;2022-07-11T03:23:45;98775.75;;;13.43;72.40
41040;BME280;48586;50.122;18.972;2022-07-11T03:26:48;98768.94;;;13.47;72.35
41040;BME280;48586;50.122;18.972;2022-07-11T03:29:50;98771.84;;;13.46;72.48
41040;BME280;48586;50.122;18.972;2022-07-11T03:32:52;98771.78;;;13.53;71.83
41040;BME280;48586;50.122;18.972;2022-07-11T03:35:54;98769.69;;;13.55;72.12
41040;BME280;48586;50.122;18.972;2022-07-11T03:38:56;98777.91;;;13.53;72.24
41040;BME280;48586;50.122;18.972;2022-07-11T03:42:00;98776.25;;;13.52;73.23
41040;BME280;48586;50.122;18.972;2022-07-11T03:45:03;98778.34;;;13.50;72.15
41040;BME280;48586;50.122;18.972;2022-07-11T03:48:05;98774.28;;;13.47;72.79
41040;BME280;48586;50.122;18.972;2022-07-11T03:51:07;98781.25;;;13.49;72.34
41040;BME280;48586;50.122;18.972;2022-07-11T03:54:09;98779.97;;;13.51;72.35
41040;BME280;48586;50.122;18.972;2022-07-11T03:57:12;98776.06;;;13.54;72.74
41040;BME280;48586;50.122;18.972;2022-07-11T04:00:14;98772.94;;;13.57;72.34
41040;BME280;48586;50.122;18.972;2022-07-11T04:03:16;98777.97;;;13.65;71.87
41040;BME280;48586;50.122;18.972;2022-07-11T04:06:18;98775.25;;;13.72;71.83
41040;BME280;48586;50.122;18.972;2022-07-11T04:09:20;98775.38;;;13.77;71.47
41040;BME280;48586;50.122;18.972;2022-07-11T04:12:23;98778.41;;;13.80;71.53
41040;BME280;48586;50.122;18.972;2022-07-11T04:15:25;98778.53;;;13.85;71.65
41040;BME280;48586;50.122;18.972;2022-07-11T04:18:27;98774.63;;;13.88;71.19
41040;BME280;48586;50.122;18.972;2022-07-11T04:21:29;98768.97;;;13.96;71.39
41040;BME280;48586;50.122;18.972;2022-07-11T04:24:31;98768.88;;;14.03;71.13
41040;BME280;48586;50.122;18.972;2022-07-11T04:27:34;98773.88;;;14.11;70.74
41040;BME280;48586;50.122;18.972;2022-07-11T04:30:36;98773.31;;;14.09;70.70
41040;BME280;48586;50.122;18.972;2022-07-11T04:33:38;98771.66;;;14.08;70.74
41040;BME280;48586;50.122;18.972;2022-07-11T04:36:39;98765.16;;;14.04;71.17
41040;BME280;48586;50.122;18.972;2022-07-11T04:39:41;98771.09;;;14.06;70.94
41040;BME280;48586;50.122;18.972;2022-07-11T04:42:47;98778.97;;;14.12;70.94
41040;BME280;48586;50.122;18.972;2022-07-11T04:45:48;98784.53;;;14.11;71.03
41040;BME280;48586;50.122;18.972;2022-07-11T04:48:50;98783.84;;;14.15;70.74
41040;BME280;48586;50.122;18.972;2022-07-11T04:51:52;98783.53;;;14.24;71.03
41040;BME280;48586;50.122;18.972;2022-07-11T04:54:54;98782.72;;;14.23;71.00
41040;BME280;48586;50.122;18.972;2022-07-11T04:57:57;98788.75;;;14.30;70.79
41040;BME280;48586;50.122;18.972;2022-07-11T05:00:59;98787.84;;;14.36;70.46
41040;BME280;48586;50.122;18.972;2022-07-11T05:04:01;98784.94;;;14.38;70.25
41040;BME280;48586;50.122;18.972;2022-07-11T05:07:04;98794.72;;;14.44;70.36
41040;BME280;48586;50.122;18.972;2022-07-11T05:10:07;98792.53;;;14.53;69.62
41040;BME280;48586;50.122;18.972;2022-07-11T05:13:10;98794.28;;;14.59;69.86
41040;BME280;48586;50.122;18.972;2022-07-11T05:16:12;98802.97;;;14.66;69.69
41040;BME280;48586;50.122;18.972;2022-07-11T05:19:14;98798.22;;;14.68;69.78
41040;BME280;48586;50.122;18.972;2022-07-11T05:22:16;98797.53;;;14.72;69.64
41040;BME280;48586;50.122;18.972;2022-07-11T05:25:17;98799.97;;;14.74;69.06
41040;BME280;48586;50.122;18.972;2022-07-11T05:28:21;98798.00;;;14.81;69.37
41040;BME280;48586;50.122;18.972;2022-07-11T05:31:22;98803.81;;;14.90;68.99
41040;BME280;48586;50.122;18.972;2022-07-11T05:34:24;98803.84;;;15.02;68.78
41040;BME280;48586;50.122;18.972;2022-07-11T05:37:26;98799.56;;;15.12;68.40
41040;BME280;48586;50.122;18.972;2022-07-11T05:40:28;98799.31;;;15.26;67.98
41040;BME280;48586;50.122;18.972;2022-07-11T05:43:31;98803.69;;;15.43;68.15
41040;BME280;48586;50.122;18.972;2022-07-11T05:46:33;98807.44;;;15.71;67.70
41040;BME280;48586;50.122;18.972;2022-07-11T05:49:39;98795.63;;;15.95;66.52
41040;BME280;48586;50.122;18.972;2022-07-11T05:52:41;98797.31;;;16.02;65.04
41040;BME280;48586;50.122;18.972;2022-07-11T05:55:43;98792.31;;;16.17;64.93
41040;BME280;48586;50.122;18.972;2022-07-11T05:58:46;98790.03;;;16.26;64.41
41040;BME280;48586;50.122;18.972;2022-07-11T06:01:48;98790.47;;;16.34;63.20
41040;BME280;48586;50.122;18.972;2022-07-11T06:04:50;98801.66;;;16.48;62.79
41040;BME280;48586;50.122;18.972;2022-07-11T06:07:52;98788.44;;;16.58;62.23
41040;BME280;48586;50.122;18.972;2022-07-11T06:11:13;98795.00;;;16.67;61.63
41040;BME280;48586;50.122;18.972;2022-07-11T06:14:17;98799.66;;;16.72;59.90
41040;BME280;48586;50.122;18.972;2022-07-11T06:17:19;98798.66;;;16.78;60.74
41040;BME280;48586;50.122;18.972;2022-07-11T06:20:22;98795.56;;;16.69;59.36
41040;BME280;48586;50.122;18.972;2022-07-11T06:23:24;98796.97;;;16.72;59.83
41040;BME280;48586;50.122;18.972;2022-07-11T06:26:27;98790.69;;;16.83;59.81
41040;BME280;48586;50.122;18.972;2022-07-11T06:29:30;98796.06;;;16.83;58.99
41040;BME280;48586;50.122;18.972;2022-07-11T06:32:32;98797.03;;;16.77;58.86
41040;BME280;48586;50.122;18.972;2022-07-11T06:35:34;98794.78;;;16.69;58.66
41040;BME280;48586;50.122;18.972;2022-07-11T06:38:36;98799.78;;;16.65;59.40
41040;BME280;48586;50.122;18.972;2022-07-11T06:41:38;98796.38;;;16.70;59.55
41040;BME280;48586;50.122;18.972;2022-07-11T06:44:41;98800.19;;;16.74;59.03
41040;BME280;48586;50.122;18.972;2022-07-11T06:47:43;98794.44;;;16.65;59.48
41040;BME280;48586;50.122;18.972;2022-07-11T06:50:44;98793.97;;;16.68;59.28
41040;BME280;48586;50.122;18.972;2022-07-11T06:53:46;98799.66;;;16.72;58.72
41040;BME280;48586;50.122;18.972;2022-07-11T06:56:48;98794.91;;;16.79;58.94
41040;BME280;48586;50.122;18.972;2022-07-11T06:59:52;98806.59;;;16.90;58.03
41040;BME280;48586;50.122;18.972;2022-07-11T07:02:55;98797.91;;;17.00;58.20
41040;BME280;48586;50.122;18.972;2022-07-11T07:05:57;98795.03;;;17.23;58.57
41040;BME280;48586;50.122;18.972;2022-07-11T07:09:00;98795.94;;;17.29;56.85
41040;BME280;48586;50.122;18.972;2022-07-11T07:12:03;98793.94;;;17.41;56.88
41040;BME280;48586;50.122;18.972;2022-07-11T07:15:09;98788.72;;;17.51;56.14
41040;BME280;48586;50.122;18.972;2022-07-11T07:18:12;98795.94;;;17.73;56.51
41040;BME280;48586;50.122;18.972;2022-07-11T07:21:15;98781.44;;;17.95;55.20
41040;BME280;48586;50.122;18.972;2022-07-11T07:24:18;98798.50;;;18.11;53.99
41040;BME280;48586;50.122;18.972;2022-07-11T07:27:20;98789.09;;;18.09;53.76
41040;BME280;48586;50.122;18.972;2022-07-11T07:30:25;98795.03;;;18.11;53.44
41040;BME280;48586;50.122;18.972;2022-07-11T07:33:28;98788.06;;;18.37;53.32
41040;BME280;48586;50.122;18.972;2022-07-11T07:36:31;98779.38;;;18.62;51.86
41040;BME280;48586;50.122;18.972;2022-07-11T07:39:33;98773.47;;;18.60;51.43
41040;BME280;48586;50.122;18.972;2022-07-11T07:42:35;98781.84;;;18.68;51.17
41040;BME280;48586;50.122;18.972;2022-07-11T07:45:40;98781.66;;;18.43;51.23
41040;BME280;48586;50.122;18.972;2022-07-11T07:48:43;98786.59;;;18.24;51.62
41040;BME280;48586;50.122;18.972;2022-07-11T07:51:46;98789.97;;;18.14;52.60
41040;BME280;48586;50.122;18.972;2022-07-11T07:54:48;98787.91;;;18.00;52.35
41040;BME280;48586;50.122;18.972;2022-07-11T07:57:50;98793.41;;;17.88;52.91
41040;BME280;48586;50.122;18.972;2022-07-11T08:00:54;98793.13;;;17.84;52.41
41040;BME280;48586;50.122;18.972;2022-07-11T08:04:16;98795.28;;;17.87;52.79
41040;BME280;48586;50.122;18.972;2022-07-11T08:07:18;98793.69;;;17.86;52.64
41040;BME280;48586;50.122;18.972;2022-07-11T08:10:21;98786.53;;;17.97;52.10
41040;BME280;48586;50.122;18.972;2022-07-11T08:13:24;98784.09;;;18.17;51.36
41040;BME280;48586;50.122;18.972;2022-07-11T08:16:29;98775.91;;;18.29;51.24
41040;BME280;48586;50.122;18.972;2022-07-11T08:19:33;98775.09;;;18.29;51.60
41040;BME280;48586;50.122;18.972;2022-07-11T08:22:35;98782.72;;;18.42;51.18
41040;BME280;48586;50.122;18.972;2022-07-11T08:25:38;98774.00;;;18.62;50.70
41040;BME280;48586;50.122;18.972;2022-07-11T08:28:40;98771.28;;;18.57;50.79
41040;BME280;48586;50.122;18.972;2022-07-11T08:31:43;98764.31;;;18.56;50.92
41040;BME280;48586;50.122;18.972;2022-07-11T08:34:45;98762.69;;;18.23;49.58
41040;BME280;48586;50.122;18.972;2022-07-11T08:37:47;98763.22;;;18.19;50.48
41040;BME280;48586;50.122;18.972;2022-07-11T08:40:51;98766.81;;;18.35;51.09
41040;BME280;48586;50.122;18.972;2022-07-11T08:43:53;98754.28;;;18.83;50.80
41040;BME280;48586;50.122;18.972;2022-07-11T08:46:57;98750.50;;;18.79;49.92
41040;BME280;48586;50.122;18.972;2022-07-11T08:50:01;98746.09;;;18.58;47.71
41040;BME280;48586;50.122;18.972;2022-07-11T08:53:05;98757.59;;;18.21;49.37
41040;BME280;48586;50.122;18.972;2022-07-11T08:56:09;98752.34;;;18.36;49.19
41040;BME280;48586;50.122;18.972;2022-07-11T08:59:16;98749.25;;;18.50;48.63
41040;BME280;48586;50.122;18.972;2022-07-11T09:02:21;98748.03;;;18.67;48.04
41040;BME280;48586;50.122;18.972;2022-07-11T09:05:24;98745.63;;;18.71;45.93
41040;BME280;48586;50.122;18.972;2022-07-11T09:08:29;98753.03;;;18.96;47.31
41040;BME280;48586;50.122;18.972;2022-07-11T09:11:50;98737.56;;;19.13;46.52
41040;BME280;48586;50.122;18.972;2022-07-11T09:14:52;98747.84;;;19.27;46.14
41040;BME280;48586;50.122;18.972;2022-07-11T09:17:56;98751.09;;;19.29;46.10
41040;BME280;48586;50.122;18.972;2022-07-11T09:21:00;98733.06;;;19.24;45.36
41040;BME280;48586;50.122;18.972;2022-07-11T09:24:21;98739.28;;;19.35;46.36
41040;BME280;48586;50.122;18.972;2022-07-11T09:27:47;98726.00;;;19.86;45.56
41040;BME280;48586;50.122;18.972;2022-07-11T09:30:49;98712.78;;;19.74;43.82
41040;BME280;48586;50.122;18.972;2022-07-11T09:34:01;98722.50;;;19.85;44.96
41040;BME280;48586;50.122;18.972;2022-07-11T09:37:04;98712.31;;;20.13;44.84
41040;BME280;48586;50.122;18.972;2022-07-11T09:40:11;98719.31;;;20.04;44.17
41040;BME280;48586;50.122;18.972;2022-07-11T09:43:14;98702.13;;;20.05;44.74
41040;BME280;48586;50.122;18.972;2022-07-11T09:46:19;98697.25;;;20.17;44.52
41040;BME280;48586;50.122;18.972;2022-07-11T09:49:32;98706.69;;;20.09;44.65
41040;BME280;48586;50.122;18.972;2022-07-11T09:52:34;98711.53;;;20.07;45.36
41040;BME280;48586;50.122;18.972;2022-07-11T09:55:38;98723.38;;;20.01;44.53
41040;BME280;48586;50.122;18.972;2022-07-11T09:58:40;98717.13;;;19.90;44.47
41040;BME280;48586;50.122;18.972;2022-07-11T10:01:42;98727.59;;;19.72;44.22
41040;BME280;48586;50.122;18.972;2022-07-11T10:04:46;98710.38;;;19.78;44.08
41040;BME280;48586;50.122;18.972;2022-07-11T10:07:49;98711.66;;;19.50;44.27
41040;BME280;48586;50.122;18.972;2022-07-11T10:10:51;98723.41;;;19.28;45.20
41040;BME280;48586;50.122;18.972;2022-07-11T10:13:54;98718.81;;;19.24;45.90
41040;BME280;48586;50.122;18.972;2022-07-11T10:17:02;98727.13;;;19.17;45.82
41040;BME280;48586;50.122;18.972;2022-07-11T10:20:13;98735.63;;;19.04;45.72
41040;BME280;48586;50.122;18.972;2022-07-11T10:23:22;98748.41;;;18.86;47.04
41040;BME280;48586;50.122;18.972;2022-07-11T10:26:32;98778.28;;;18.26;53.84
41040;BME280;48586;50.122;18.972;2022-07-11T10:29:43;98780.84;;;17.23;56.38
41040;BME280;48586;50.122;18.972;2022-07-11T10:33:01;98784.06;;;16.52;59.06
41040;BME280;48586;50.122;18.972;2022-07-11T10:36:25;98788.69;;;16.11;60.09
41040;BME280;48586;50.122;18.972;2022-07-11T10:39:29;98792.75;;;15.85;60.06
41040;BME280;48586;50.122;18.972;2022-07-11T10:42:38;98792.31;;;15.77;61.44
41040;BME280;48586;50.122;18.972;2022-07-11T10:46:03;98795.31;;;15.80;62.04
41040;BME280;48586;50.122;18.972;2022-07-11T10:49:16;98792.19;;;15.83;61.74
41040;BME280;48586;50.122;18.972;2022-07-11T10:52:22;98790.28;;;15.95;61.29
41040;BME280;48586;50.122;18.972;2022-07-11T10:55:35;98785.41;;;16.21;62.29
41040;BME280;48586;50.122;18.972;2022-07-11T10:58:41;98776.03;;;16.52;61.47
41040;BME280;48586;50.122;18.972;2022-07-11T11:05:42;98767.97;;;17.63;59.86
41040;BME280;48586;50.122;18.972;2022-07-11T11:08:46;98758.84;;;18.40;57.48
41040;BME280;48586;50.122;18.972;2022-07-11T11:11:48;98776.81;;;18.77;56.53
41040;BME280;48586;50.122;18.972;2022-07-11T11:18:36;98771.81;;;18.96;53.79
41040;BME280;48586;50.122;18.972;2022-07-11T11:21:59;98784.16;;;19.29;50.82
41040;BME280;48586;50.122;18.972;2022-07-11T11:25:04;98777.06;;;19.76;51.13
41040;BME280;48586;50.122;18.972;2022-07-11T11:28:09;98774.53;;;20.32;49.83
41040;BME280;48586;50.122;18.972;2022-07-11T11:31:12;98767.78;;;20.60;49.39
41040;BME280;48586;50.122;18.972;2022-07-11T11:34:14;98768.06;;;20.89;47.76
41040;BME280;48586;50.122;18.972;2022-07-11T11:37:17;98769.84;;;21.24;46.42
41040;BME280;48586;50.122;18.972;2022-07-11T11:40:21;98775.56;;;21.07;45.31
41040;BME280;48586;50.122;18.972;2022-07-11T11:43:24;98783.69;;;20.31;45.30
41040;BME280;48586;50.122;18.972;2022-07-11T11:46:27;98806.84;;;19.54;46.23
41040;BME280;48586;50.122;18.972;2022-07-11T11:49:41;98821.66;;;18.77;49.68
41040;BME280;48586;50.122;18.972;2022-07-11T11:52:44;98825.56;;;18.10;50.96
41040;BME280;48586;50.122;18.972;2022-07-11T11:55:48;98833.72;;;17.32;54.21
41040;BME280;48586;50.122;18.972;2022-07-11T11:58:51;98836.47;;;16.82;56.04
41040;BME280;48586;50.122;18.972;2022-07-11T12:01:54;98864.00;;;16.49;57.26
41040;BME280;48586;50.122;18.972;2022-07-11T12:04:57;98858.59;;;16.03;59.43
41040;BME280;48586;50.122;18.972;2022-07-11T12:07:59;98862.63;;;15.65;60.72
41040;BME280;48586;50.122;18.972;2022-07-11T12:11:04;98867.44;;;15.28;62.64
41040;BME280;48586;50.122;18.972;2022-07-11T12:14:07;98865.00;;;14.91;63.66
41040;BME280;48586;50.122;18.972;2022-07-11T12:17:10;98866.19;;;14.65;64.38
41040;BME280;48586;50.122;18.972;2022-07-11T12:20:12;98868.91;;;14.47;65.50
41040;BME280;48586;50.122;18.972;2022-07-11T12:23:16;98856.81;;;14.33;65.77
41040;BME280;48586;50.122;18.972;2022-07-11T12:26:21;98851.44;;;14.21;67.29
41040;BME280;48586;50.122;18.972;2022-07-11T12:29:24;98854.56;;;14.18;66.67
41040;BME280;48586;50.122;18.972;2022-07-11T12:32:28;98846.78;;;14.16;67.00
41040;BME280;48586;50.122;18.972;2022-07-11T12:35:30;98842.25;;;14.17;67.12
41040;BME280;48586;50.122;18.972;2022-07-11T12:38:47;98839.41;;;14.30;67.83
41040;BME280;48586;50.122;18.972;2022-07-11T12:41:55;98837.75;;;14.48;68.73
41040;BME280;48586;50.122;18.972;2022-07-11T12:44:58;98841.09;;;14.97;69.82
41040;BME280;48586;50.122;18.972;2022-07-11T12:48:08;98846.41;;;15.43;67.03
41040;BME280;48586;50.122;18.972;2022-07-11T12:51:10;98837.63;;;15.71;65.88
41040;BME280;48586;50.122;18.972;2022-07-11T12:54:14;98844.56;;;15.84;65.96
41040;BME280;48586;50.122;18.972;2022-07-11T12:57:20;98845.81;;;16.05;65.54
41040;BME280;48586;50.122;18.972;2022-07-11T13:00:26;98839.09;;;16.31;64.93
41040;BME280;48586;50.122;18.972;2022-07-11T13:03:32;98831.91;;;16.65;64.39
41040;BME280;48586;50.122;18.972;2022-07-11T13:06:42;98841.47;;;17.12;64.32
41040;BME280;48586;50.122;18.972;2022-07-11T13:10:02;98827.28;;;17.28;61.60
41040;BME280;48586;50.122;18.972;2022-07-11T13:13:07;98822.31;;;17.59;61.46
41040;BME280;48586;50.122;18.972;2022-07-11T13:16:10;98816.56;;;17.94;60.20
41040;BME280;48586;50.122;18.972;2022-07-11T13:19:13;98816.16;;;18.29;58.66
41040;BME280;48586;50.122;18.972;2022-07-11T13:22:15;98813.59;;;18.44;57.71
41040;BME280;48586;50.122;18.972;2022-07-11T13:25:20;98816.88;;;18.52;57.36
41040;BME280;48586;50.122;18.972;2022-07-11T13:28:24;98822.59;;;18.60;56.86
41040;BME280;48586;50.122;18.972;2022-07-11T13:31:26;98815.94;;;18.68;56.85
41040;BME280;48586;50.122;18.972;2022-07-11T13:34:28;98826.84;;;18.88;56.64
41040;BME280;48586;50.122;18.972;2022-07-11T13:37:31;98828.69;;;19.15;54.75
41040;BME280;48586;50.122;18.972;2022-07-11T13:40:36;98819.69;;;19.04;51.53
41040;BME280;48586;50.122;18.972;2022-07-11T13:43:39;98831.00;;;19.06;53.83
41040;BME280;48586;50.122;18.972;2022-07-11T13:46:42;98835.72;;;19.26;53.96
41040;BME280;48586;50.122;18.972;2022-07-11T13:49:45;98830.94;;;19.38;53.62
41040;BME280;48586;50.122;18.972;2022-07-11T13:52:48;98832.78;;;19.28;52.48
41040;BME280;48586;50.122;18.972;2022-07-11T13:55:51;98833.19;;;19.09;52.42
41040;BME280;48586;50.122;18.972;2022-07-11T13:58:55;98829.59;;;18.99;51.97
41040;BME280;48586;50.122;18.972;2022-07-11T14:01:58;98822.63;;;18.98;51.52
41040;BME280;48586;50.122;18.972;2022-07-11T14:05:00;98826.09;;;19.35;51.87
41040;BME280;48586;50.122;18.972;2022-07-11T14:08:03;98830.09;;;19.85;47.96
41040;BME280;48586;50.122;18.972;2022-07-11T14:11:06;98834.78;;;20.15;47.61
41040;BME280;48586;50.122;18.972;2022-07-11T14:14:10;98829.72;;;20.60;48.40
41040;BME280;48586;50.122;18.972;2022-07-11T14:17:12;98832.41;;;20.65;47.40
41040;BME280;48586;50.122;18.972;2022-07-11T14:20:14;98839.13;;;20.42;47.80
41040;BME280;48586;50.122;18.972;2022-07-11T14:23:17;98843.69;;;20.26;48.07
41040;BME280;48586;50.122;18.972;2022-07-11T14:26:20;98836.44;;;20.27;48.43
41040;BME280;48586;50.122;18.972;2022-07-11T14:29:24;98842.88;;;20.26;48.06
41040;BME280;48586;50.122;18.972;2022-07-11T14:32:29;98833.13;;;20.04;48.17
41040;BME280;48586;50.122;18.972;2022-07-11T14:35:31;98833.25;;;19.72;49.52
41040;BME280;48586;50.122;18.972;2022-07-11T14:38:34;98845.16;;;19.34;49.21
41040;BME280;48586;50.122;18.972;2022-07-11T14:41:37;98836.25;;;18.91;50.11
41040;BME280;48586;50.122;18.972;2022-07-11T14:44:44;98839.53;;;18.66;51.03
41040;BME280;48586;50.122;18.972;2022-07-11T14:47:52;98835.84;;;18.72;51.86
41040;BME280;48586;50.122;18.972;2022-07-11T14:50:56;98837.03;;;18.86;52.06
41040;BME280;48586;50.122;18.972;2022-07-11T14:53:59;98832.03;;;19.37;51.00
41040;BME280;48586;50.122;18.972;2022-07-11T14:57:01;98835.78;;;19.36;50.83
41040;BME280;48586;50.122;18.972;2022-07-11T15:00:07;98835.22;;;19.34;50.68
41040;BME280;48586;50.122;18.972;2022-07-11T15:03:10;98823.13;;;19.32;50.88
41040;BME280;48586;50.122;18.972;2022-07-11T15:06:30;98826.53;;;19.17;50.84
41040;BME280;48586;50.122;18.972;2022-07-11T15:10:02;98821.22;;;19.27;51.79
41040;BME280;48586;50.122;18.972;2022-07-11T15:13:23;98821.31;;;20.20;50.68
41040;BME280;48586;50.122;18.972;2022-07-11T15:16:27;98810.53;;;21.38;49.12
41040;BME280;48586;50.122;18.972;2022-07-11T15:19:31;98802.88;;;22.20;45.71
41040;BME280;48586;50.122;18.972;2022-07-11T15:22:34;98795.69;;;22.44;45.24
41040;BME280;48586;50.122;18.972;2022-07-11T15:25:37;98799.78;;;22.76;44.72
41040;BME280;48586;50.122;18.972;2022-07-11T15:28:40;98804.63;;;22.79;42.87
41040;BME280;48586;50.122;18.972;2022-07-11T15:31:45;98800.88;;;22.36;44.95
41040;BME280;48586;50.122;18.972;2022-07-11T15:34:48;98798.94;;;22.41;45.25
41040;BME280;48586;50.122;18.972;2022-07-11T15:37:50;98802.28;;;22.67;43.54
41040;BME280;48586;50.122;18.972;2022-07-11T15:40:53;98791.22;;;22.69;43.39
41040;BME280;48586;50.122;18.972;2022-07-11T15:43:56;98797.28;;;22.56;44.37
41040;BME280;48586;50.122;18.972;2022-07-11T15:47:00;98805.72;;;22.00;44.42
41040;BME280;48586;50.122;18.972;2022-07-11T15:50:02;98808.25;;;21.70;45.30
41040;BME280;48586;50.122;18.972;2022-07-11T15:53:06;98807.06;;;21.27;46.08
41040;BME280;48586;50.122;18.972;2022-07-11T15:56:09;98810.31;;;20.73;47.06
41040;BME280;48586;50.122;18.972;2022-07-11T15:59:11;98820.81;;;20.29;48.28
41040;BME280;48586;50.122;18.972;2022-07-11T16:02:14;98824.72;;;19.95;49.39
41040;BME280;48586;50.122;18.972;2022-07-11T16:05:17;98818.63;;;20.15;50.11
41040;BME280;48586;50.122;18.972;2022-07-11T16:08:19;98820.59;;;20.97;48.89
41040;BME280;48586;50.122;18.972;2022-07-11T16:11:23;98827.06;;;21.01;47.74